createdAt,value
2022-12-15T00:02:13.583Z,69.30
2022-12-15T00:04:59.052Z,61.45
2022-12-15T00:07:44.322Z,59.33
2022-12-15T00:10:29.420Z,54.47
2022-12-15T00:13:14.554Z,59.25
2022-12-15T00:15:59.732Z,70.72
2022-12-15T00:18:44.742Z,73.55
2022-12-15T00:21:29.876Z,68.07
2022-12-15T00:24:14.993Z,67.07
2022-12-15T00:27:00.198Z,58.70
2022-12-15T00:29:45.306Z,68.40
2022-12-15T00:32:30.487Z,63.53
2022-12-15T00:35:15.790Z,65.22
2022-12-15T00:38:00.911Z,63.33
2022-12-15T00:40:27.763Z,72.78
2022-12-15T00:42:54.610Z,66.75
2022-12-15T00:45:21.334Z,64.35
2022-12-15T00:47:48.116Z,72.72
2022-12-15T00:50:33.143Z,76.27
2022-12-15T00:53:18.453Z,63.78
2022-12-15T00:56:03.647Z,66.43
2022-12-15T00:58:48.831Z,64.22
2022-12-15T01:01:34.035Z,61.05
2022-12-15T01:04:19.623Z,69.63
2022-12-15T01:07:05.057Z,70.18
2022-12-15T01:09:50.225Z,74.28
2022-12-15T01:12:35.464Z,72.85
2022-12-15T01:15:20.428Z,76.30
2022-12-15T01:18:05.568Z,71.15
2022-12-15T01:20:34.750Z,71.10
2022-12-15T01:23:01.577Z,74.65
2022-12-15T01:25:29.159Z,71.13
2022-12-15T01:27:55.922Z,75.88
2022-12-15T01:30:25.752Z,68.68
2022-12-15T01:32:52.650Z,75.00
2022-12-15T01:35:19.721Z,74.50
2022-12-15T01:37:46.553Z,73.95
2022-12-15T01:40:36.742Z,66.57
2022-12-15T01:43:03.549Z,73.10
2022-12-15T01:45:30.241Z,65.88
2022-12-15T01:48:00.795Z,64.55
2022-12-15T01:50:27.843Z,68.50
2022-12-15T01:52:54.612Z,77.65
2022-12-15T01:55:21.654Z,73.03
2022-12-15T01:57:48.571Z,72.82
2022-12-15T02:00:15.554Z,67.60
2022-12-15T02:02:42.460Z,70.63
2022-12-15T02:05:09.471Z,70.40
2022-12-15T02:07:36.234Z,75.55
2022-12-15T02:10:04.112Z,72.38
2022-12-15T02:12:55.063Z,68.55
2022-12-15T02:15:28.271Z,61.85
2022-12-15T02:18:05.202Z,75.65
2022-12-15T02:20:34.971Z,69.70
2022-12-15T02:23:39.003Z,71.13
2022-12-15T02:26:13.584Z,76.45
2022-12-15T02:29:17.504Z,63.70
2022-12-15T02:31:50.854Z,68.10
2022-12-15T02:34:48.370Z,71.60
2022-12-15T02:37:18.023Z,65.88
2022-12-15T02:39:44.943Z,71.57
2022-12-15T02:42:11.774Z,67.05
2022-12-15T02:44:47.623Z,73.55
2022-12-15T02:47:27.253Z,68.37
2022-12-15T02:50:18.841Z,67.78
2022-12-15T02:53:23.030Z,67.25
2022-12-15T02:56:08.374Z,62.47
2022-12-15T02:58:38.103Z,66.68
2022-12-15T03:01:43.711Z,72.73
2022-12-15T03:04:10.950Z,68.28
2022-12-15T03:06:37.843Z,66.40
2022-12-15T03:09:04.634Z,76.97
2022-12-15T03:11:31.372Z,74.03
2022-12-15T03:13:58.161Z,67.17
2022-12-15T03:16:24.989Z,66.60
2022-12-15T03:18:52.462Z,74.07
2022-12-15T03:21:19.401Z,66.80
2022-12-15T03:23:46.200Z,75.75
2022-12-15T03:26:12.965Z,69.83
2022-12-15T03:28:39.811Z,71.55
2022-12-15T03:31:07.375Z,62.38
2022-12-15T03:33:34.646Z,71.47
2022-12-15T03:36:01.665Z,71.47
2022-12-15T03:38:28.412Z,64.50
2022-12-15T03:40:55.204Z,61.08
2022-12-15T03:43:22.031Z,71.45
2022-12-15T03:45:49.000Z,63.05
2022-12-15T03:48:18.830Z,71.55
2022-12-15T03:50:45.682Z,62.77
2022-12-15T03:53:12.434Z,69.35
2022-12-15T03:55:39.261Z,64.60
2022-12-15T03:58:06.053Z,65.10
2022-12-15T04:00:32.972Z,68.57
2022-12-15T04:02:59.935Z,81.07
2022-12-15T04:05:31.531Z,69.10
2022-12-15T04:07:58.752Z,69.85
2022-12-15T04:10:33.375Z,68.10
2022-12-15T04:13:02.462Z,71.88
2022-12-15T04:15:29.222Z,66.73
2022-12-15T04:17:56.082Z,69.25
2022-12-15T04:20:22.897Z,74.80
2022-12-15T04:22:50.330Z,72.53
2022-12-15T04:25:37.763Z,71.57
2022-12-15T04:28:23.354Z,73.00
2022-12-15T04:31:11.615Z,75.72
2022-12-15T04:33:58.750Z,70.65
2022-12-15T04:36:43.955Z,66.95
2022-12-15T04:39:29.071Z,89.35
2022-12-15T04:42:14.253Z,65.33
2022-12-15T04:44:59.272Z,62.22
2022-12-15T04:47:44.535Z,73.97
2022-12-15T04:50:29.850Z,71.65
2022-12-15T04:53:15.074Z,69.78
2022-12-15T04:56:00.247Z,62.20
2022-12-15T04:58:45.345Z,70.90
2022-12-15T05:01:30.714Z,75.20
2022-12-15T05:04:16.465Z,72.63
2022-12-15T05:07:01.414Z,70.18
2022-12-15T05:09:46.615Z,65.23
2022-12-15T05:12:31.772Z,60.22
2022-12-15T05:15:17.077Z,68.13
2022-12-15T05:18:02.204Z,68.13
2022-12-15T05:20:49.890Z,65.82
2022-12-15T05:23:35.590Z,59.03
2022-12-15T05:26:20.640Z,65.97
2022-12-15T05:29:05.785Z,58.17
2022-12-15T05:31:50.862Z,57.50
2022-12-15T05:34:20.056Z,72.35
2022-12-15T05:36:46.917Z,73.50
2022-12-15T05:39:13.808Z,69.40
2022-12-15T05:41:40.763Z,75.82
2022-12-15T05:44:07.674Z,76.38
2022-12-15T05:46:34.513Z,66.30
2022-12-15T05:49:04.583Z,61.97
2022-12-15T05:51:31.434Z,62.90
2022-12-15T05:53:58.194Z,60.92
2022-12-15T05:56:25.694Z,62.80
2022-12-15T05:58:52.444Z,66.07
2022-12-15T06:01:19.520Z,70.63
2022-12-15T06:03:46.374Z,55.70
2022-12-15T06:06:13.310Z,62.22
2022-12-15T06:08:41.040Z,69.20
2022-12-15T06:11:08.111Z,64.05
2022-12-15T06:13:35.272Z,58.77
2022-12-15T06:16:06.468Z,66.68
2022-12-15T06:18:36.610Z,59.08
2022-12-15T06:21:05.600Z,58.08
2022-12-15T06:23:35.324Z,53.05
2022-12-15T06:26:12.830Z,62.90
2022-12-15T06:28:40.264Z,53.05
2022-12-15T06:31:08.108Z,57.90
2022-12-15T06:33:35.244Z,61.90
2022-12-15T06:36:03.871Z,53.92
2022-12-15T06:38:30.723Z,58.10
2022-12-15T06:41:01.267Z,55.13
2022-12-15T06:43:28.962Z,60.00
2022-12-15T06:45:56.009Z,53.15
2022-12-15T06:48:23.303Z,53.50
2022-12-15T06:50:50.490Z,67.07
2022-12-15T06:53:18.426Z,60.92
2022-12-15T06:55:45.474Z,59.92
2022-12-15T06:58:12.651Z,67.18
2022-12-15T07:00:40.022Z,65.90
2022-12-15T07:03:25.198Z,62.53
2022-12-15T07:06:04.096Z,54.00
2022-12-15T07:08:35.333Z,59.22
2022-12-15T07:11:07.256Z,50.00
2022-12-15T07:13:34.688Z,62.50
2022-12-15T07:16:02.209Z,57.57
2022-12-15T07:18:29.466Z,52.92
2022-12-15T07:21:03.534Z,53.13
2022-12-15T07:23:52.859Z,46.78
2022-12-15T07:26:17.403Z,56.22
2022-12-15T07:28:44.199Z,52.80
2022-12-15T07:31:13.733Z,55.92
2022-12-15T07:33:40.545Z,61.90
2022-12-15T07:36:08.525Z,54.22
2022-12-15T07:38:35.431Z,57.13
2022-12-15T07:41:03.899Z,61.50
2022-12-15T07:43:31.986Z,49.88
2022-12-15T07:45:59.239Z,50.65
2022-12-15T07:48:27.410Z,53.53
2022-12-15T07:51:05.145Z,61.72
2022-12-15T07:53:34.990Z,53.83
2022-12-15T07:56:10.061Z,62.78
2022-12-15T07:58:37.771Z,58.25
2022-12-15T08:01:06.553Z,62.58
2022-12-15T08:03:34.459Z,54.63
2022-12-15T08:06:08.723Z,59.20
2022-12-15T08:08:36.071Z,60.88
2022-12-15T08:11:06.758Z,65.63
2022-12-15T08:16:21.756Z,53.65
2022-12-15T08:18:49.114Z,58.70
2022-12-15T08:21:15.950Z,68.10
2022-12-15T08:23:42.793Z,73.65
2022-12-15T08:26:11.293Z,78.35
2022-12-15T08:28:38.876Z,65.28
2022-12-15T08:31:09.826Z,67.90
2022-12-15T08:33:36.683Z,67.18
2022-12-15T08:36:06.167Z,59.83
2022-12-15T08:38:33.468Z,69.25
2022-12-15T08:41:10.411Z,75.05
2022-12-15T08:43:42.507Z,71.53
2022-12-15T08:46:16.090Z,69.47
2022-12-15T08:48:43.194Z,69.30
2022-12-15T08:51:10.460Z,75.38
2022-12-15T08:53:37.267Z,78.68
2022-12-15T08:56:08.851Z,84.20
2022-12-15T08:58:35.653Z,86.65
2022-12-15T09:01:03.845Z,84.18
2022-12-15T09:03:31.041Z,78.85
2022-12-15T09:06:04.680Z,72.70
2022-12-15T09:08:31.509Z,72.18
2022-12-15T09:10:58.862Z,67.82
2022-12-15T09:13:25.861Z,75.63
2022-12-15T09:16:10.754Z,80.97
2022-12-15T09:18:38.135Z,82.47
2022-12-15T09:21:06.023Z,74.03
2022-12-15T09:23:33.482Z,73.95
2022-12-15T09:26:05.523Z,74.72
2022-12-15T09:28:32.375Z,78.70
2022-12-15T09:31:06.527Z,70.70
2022-12-15T09:33:34.051Z,70.30
2022-12-15T09:36:01.044Z,77.47
2022-12-15T09:38:27.933Z,89.30
2022-12-15T09:40:54.751Z,80.00
2022-12-15T09:43:46.249Z,76.93
2022-12-15T09:46:50.841Z,73.33
2022-12-15T09:49:55.105Z,74.80
2022-12-15T09:52:43.764Z,65.88
2022-12-15T09:55:30.073Z,70.65
2022-12-15T09:57:59.937Z,80.72
2022-12-15T10:00:45.886Z,70.22
2022-12-15T10:03:36.418Z,77.97
2022-12-15T10:06:21.540Z,74.35
2022-12-15T10:08:50.993Z,76.57
2022-12-15T10:11:30.763Z,78.25
2022-12-15T10:14:21.823Z,80.00
2022-12-15T10:17:21.624Z,73.80
2022-12-15T10:20:10.122Z,67.90
2022-12-15T10:22:37.323Z,81.47
2022-12-15T10:25:22.093Z,79.82
2022-12-15T10:28:17.506Z,75.03
2022-12-15T10:31:02.506Z,76.75
2022-12-15T10:33:35.098Z,75.40
2022-12-15T10:36:13.764Z,76.43
2022-12-15T10:38:42.644Z,78.32
2022-12-15T10:41:12.846Z,70.82
2022-12-15T10:43:40.956Z,75.35
2022-12-15T10:46:15.699Z,84.55
2022-12-15T10:48:44.104Z,74.13
2022-12-15T10:51:37.803Z,79.45
2022-12-15T10:54:13.009Z,77.05
2022-12-15T10:56:53.585Z,79.65
2022-12-15T10:59:34.242Z,77.30
2022-12-15T11:02:25.278Z,81.07
2022-12-15T11:05:17.118Z,75.85
2022-12-15T11:07:45.044Z,73.93
2022-12-15T11:10:27.326Z,69.45
2022-12-15T11:13:20.813Z,79.63
2022-12-15T11:15:51.951Z,76.13
2022-12-15T11:18:37.624Z,72.88
2022-12-15T11:21:24.516Z,79.30
2022-12-15T11:24:09.833Z,82.45
2022-12-15T11:26:42.596Z,77.43
2022-12-15T11:29:30.072Z,72.10
2022-12-15T11:32:01.430Z,72.63
2022-12-15T11:34:50.420Z,70.07
2022-12-15T11:37:24.206Z,79.18
2022-12-15T11:40:06.042Z,80.07
2022-12-15T11:42:50.973Z,83.57
2022-12-15T11:45:32.812Z,74.43
2022-12-15T11:48:13.011Z,80.65
2022-12-15T11:50:57.895Z,74.43
2022-12-15T11:53:41.774Z,76.22
2022-12-15T11:56:39.555Z,75.07
2022-12-15T11:59:27.479Z,77.18
2022-12-15T12:02:31.488Z,78.07
2022-12-15T12:05:34.901Z,70.47
2022-12-15T12:08:20.428Z,75.05
2022-12-15T12:10:53.678Z,78.35
2022-12-15T12:13:55.222Z,70.63
2022-12-15T12:16:30.871Z,68.25
2022-12-15T12:19:04.747Z,71.05
2022-12-15T12:21:37.382Z,72.47
2022-12-15T12:24:40.071Z,68.32
2022-12-15T12:27:18.447Z,64.75
2022-12-15T12:29:50.307Z,57.90
2022-12-15T12:32:43.990Z,61.55
2022-12-15T12:35:34.061Z,63.72
2022-12-15T12:38:03.975Z,61.65
2022-12-15T12:40:38.452Z,66.10
2022-12-15T12:43:08.633Z,65.25
2022-12-15T12:45:56.391Z,63.50
2022-12-15T12:49:00.675Z,71.65
2022-12-15T12:51:33.661Z,66.78
2022-12-15T12:54:00.583Z,70.50
2022-12-15T12:56:36.769Z,62.78
2022-12-15T12:59:24.423Z,59.45
2022-12-15T13:01:51.416Z,61.30
2022-12-15T13:04:30.545Z,63.13
2022-12-15T13:07:00.224Z,57.97
2022-12-15T13:09:45.847Z,57.45
2022-12-15T13:12:58.726Z,62.03
2022-12-15T13:15:29.052Z,54.58
2022-12-15T13:18:00.972Z,62.75
2022-12-15T13:20:28.296Z,56.70
2022-12-15T13:22:55.595Z,57.78
2022-12-15T13:25:40.962Z,60.70
2022-12-15T13:28:29.138Z,53.83
2022-12-15T13:31:27.784Z,57.30
2022-12-15T13:34:24.463Z,47.63
2022-12-15T13:39:58.864Z,56.28
2022-12-15T13:42:38.858Z,57.28
2022-12-15T13:45:20.290Z,58.85
2022-12-15T13:47:51.443Z,55.85
2022-12-15T13:50:52.347Z,65.43
2022-12-15T13:53:21.685Z,53.10
2022-12-15T13:55:55.776Z,62.85
2022-12-15T13:58:23.412Z,57.53
2022-12-15T14:00:57.464Z,57.58
2022-12-15T14:03:24.564Z,59.40
2022-12-15T14:05:56.325Z,67.90
2022-12-15T14:08:24.181Z,60.05
2022-12-15T14:10:55.960Z,59.33
2022-12-15T14:13:30.781Z,63.67
2022-12-15T14:16:05.242Z,63.90
2022-12-15T14:18:36.288Z,67.03
2022-12-15T14:21:06.367Z,61.35
2022-12-15T14:26:31.889Z,56.50
2022-12-15T14:29:03.484Z,54.90
2022-12-15T14:31:31.118Z,61.40
2022-12-15T14:34:12.315Z,62.72
2022-12-15T14:36:40.224Z,58.50
2022-12-15T14:39:12.070Z,60.50
2022-12-15T14:41:40.706Z,64.72
2022-12-15T14:44:32.256Z,74.28
2022-12-15T14:47:16.206Z,59.85
2022-12-15T14:49:43.823Z,59.35
2022-12-15T14:52:26.081Z,59.47
2022-12-15T14:54:57.479Z,69.35
2022-12-15T14:57:24.491Z,64.38
2022-12-15T14:59:54.073Z,62.17
2022-12-15T15:02:25.890Z,64.68
2022-12-15T15:03:13.113Z,56.42
2022-12-15T15:03:15.602Z,62.17
2022-12-15T15:05:08.364Z,61.60
2022-12-15T15:07:36.374Z,68.65
2022-12-15T15:10:03.958Z,68.95
2022-12-15T15:12:49.394Z,67.25
2022-12-15T15:15:20.748Z,67.55
2022-12-15T15:17:54.887Z,69.00
2022-12-15T15:20:37.807Z,73.20
2022-12-15T15:23:13.537Z,65.10
2022-12-15T15:25:41.649Z,62.53
2022-12-15T15:28:20.200Z,70.10
2022-12-15T15:30:56.256Z,70.00
2022-12-15T15:33:26.495Z,69.25
2022-12-15T15:35:55.378Z,69.32
2022-12-15T15:38:23.858Z,61.95
2022-12-15T15:40:55.245Z,75.75
2022-12-15T15:43:22.988Z,71.18
2022-12-15T15:45:57.746Z,75.95
2022-12-15T15:48:26.688Z,79.10
2022-12-15T15:50:53.538Z,80.95
2022-12-15T15:53:22.450Z,76.80
2022-12-15T15:55:50.647Z,69.72
2022-12-15T15:58:17.508Z,75.18
2022-12-15T16:00:44.388Z,73.28
2022-12-15T16:03:11.516Z,82.93
2022-12-15T16:05:38.448Z,70.45
2022-12-15T16:08:05.574Z,76.45
2022-12-15T16:10:32.557Z,74.90
2022-12-15T16:13:03.308Z,77.22
2022-12-15T16:15:31.738Z,72.55
2022-12-15T16:17:59.363Z,72.80
2022-12-15T16:20:29.063Z,78.97
2022-12-15T16:23:01.212Z,79.47
2022-12-15T16:25:45.245Z,66.90
2022-12-15T16:28:17.181Z,66.32
2022-12-15T16:30:44.336Z,69.72
2022-12-15T16:33:11.556Z,79.10
2022-12-15T16:35:38.839Z,80.93
2022-12-15T16:38:06.317Z,77.50
2022-12-15T16:40:37.020Z,68.97
2022-12-15T16:43:03.846Z,80.38
2022-12-15T16:45:31.300Z,81.15
2022-12-15T16:47:58.300Z,93.68
2022-12-15T16:50:34.329Z,79.72
2022-12-15T16:53:01.362Z,74.68
2022-12-15T16:55:30.318Z,76.70
2022-12-15T16:58:05.236Z,81.22
2022-12-15T17:00:34.259Z,74.45
2022-12-15T17:03:01.838Z,76.07
2022-12-15T17:05:31.645Z,88.70
2022-12-15T17:07:59.636Z,79.07
2022-12-15T17:10:29.757Z,80.18
2022-12-15T17:13:40.515Z,74.95
2022-12-15T17:16:14.478Z,76.63
2022-12-15T17:18:42.937Z,71.32
2022-12-15T17:21:19.874Z,78.47
2022-12-15T17:23:48.836Z,77.05
2022-12-15T17:26:29.491Z,79.32
2022-12-15T17:28:58.628Z,68.35
2022-12-15T17:31:31.501Z,77.32
2022-12-15T17:34:00.388Z,71.80
2022-12-15T17:36:27.787Z,76.43
2022-12-15T17:38:58.504Z,74.88
2022-12-15T17:41:57.613Z,74.22
2022-12-15T17:44:32.895Z,72.93
2022-12-15T17:47:00.955Z,83.35
2022-12-15T17:49:34.698Z,76.93
2022-12-15T17:52:02.842Z,80.35
2022-12-15T17:54:29.938Z,83.15
2022-12-15T17:56:56.766Z,87.30
2022-12-15T17:59:23.568Z,88.22
2022-12-15T18:01:50.432Z,82.93
2022-12-15T18:04:17.301Z,78.55
2022-12-15T18:06:44.282Z,88.65
2022-12-15T18:09:18.160Z,78.15
2022-12-15T18:11:46.985Z,85.38
2022-12-15T18:14:14.986Z,75.60
2022-12-15T18:16:42.406Z,79.05
2022-12-15T18:19:09.308Z,76.20
2022-12-15T18:21:36.138Z,76.18
2022-12-15T18:24:03.143Z,88.50
2022-12-15T18:26:31.548Z,81.40
2022-12-15T18:28:58.383Z,84.53
2022-12-15T18:31:28.206Z,76.63
2022-12-15T18:34:04.300Z,80.50
2022-12-15T18:36:31.668Z,79.32
2022-12-15T18:38:59.162Z,74.22
2022-12-15T18:41:25.905Z,82.13
2022-12-15T18:43:52.677Z,78.63
2022-12-15T18:46:20.403Z,75.95
2022-12-15T18:48:47.357Z,82.82
2022-12-15T18:51:19.141Z,75.28
2022-12-15T18:53:46.147Z,83.28
2022-12-15T18:56:13.920Z,80.88
2022-12-15T18:58:40.853Z,81.63
2022-12-15T19:01:07.987Z,76.45
2022-12-15T19:03:36.199Z,75.57
2022-12-15T19:06:10.817Z,83.35
2022-12-15T19:08:40.258Z,68.18
2022-12-15T19:11:07.862Z,74.38
2022-12-15T19:13:36.208Z,72.18
2022-12-15T19:16:04.312Z,75.05
2022-12-15T19:18:49.739Z,81.38
2022-12-15T19:21:42.171Z,67.63
2022-12-15T19:24:54.624Z,70.32
2022-12-15T19:27:23.624Z,66.30
2022-12-15T19:29:50.578Z,71.18
2022-12-15T19:32:17.330Z,68.25
2022-12-15T19:34:44.436Z,60.28
2022-12-15T19:37:14.247Z,61.17
2022-12-15T19:39:41.007Z,75.20
2022-12-15T19:42:18.777Z,70.88
2022-12-15T19:44:45.649Z,72.95
2022-12-15T19:47:13.706Z,78.43
2022-12-15T19:49:41.457Z,68.43
2022-12-15T19:52:17.746Z,70.70
2022-12-15T19:54:45.206Z,63.15
2022-12-15T19:57:12.945Z,69.15
2022-12-15T19:59:39.896Z,66.35
2022-12-15T20:02:07.180Z,68.80
2022-12-15T20:04:34.206Z,64.10
2022-12-15T20:07:04.377Z,67.57
2022-12-15T20:09:31.195Z,66.45
2022-12-15T20:11:58.025Z,61.67
2022-12-15T20:14:24.898Z,59.13
2022-12-15T20:16:51.789Z,65.40
2022-12-15T20:19:18.667Z,58.85
2022-12-15T20:21:45.568Z,71.63
2022-12-15T20:24:17.027Z,66.80
2022-12-15T20:26:44.186Z,62.03
2022-12-15T20:29:29.886Z,63.10
2022-12-15T20:31:57.597Z,61.20
2022-12-15T20:34:24.815Z,64.72
2022-12-15T20:36:51.655Z,66.35
2022-12-15T20:39:26.894Z,69.22
2022-12-15T20:41:54.177Z,59.55
2022-12-15T20:44:20.979Z,56.13
2022-12-15T20:46:47.795Z,55.47
2022-12-15T20:49:19.368Z,59.92
2022-12-15T20:51:47.004Z,59.85
2022-12-15T20:54:15.797Z,61.95
2022-12-15T20:56:42.858Z,54.47
2022-12-15T20:59:09.878Z,66.50
2022-12-15T21:01:36.952Z,59.67
2022-12-15T21:04:25.485Z,56.80
2022-12-15T21:06:55.984Z,61.33
2022-12-15T21:09:23.077Z,55.85
2022-12-15T21:11:51.906Z,59.50
2022-12-15T21:14:20.246Z,63.58
2022-12-15T21:16:47.146Z,60.38
2022-12-15T21:19:23.265Z,58.60
2022-12-15T21:21:52.077Z,53.25
2022-12-15T21:24:24.146Z,60.45
2022-12-15T21:26:51.276Z,56.95
2022-12-15T21:29:22.536Z,55.75
2022-12-15T21:31:49.370Z,53.95
2022-12-15T21:34:16.316Z,55.30
2022-12-15T21:36:44.045Z,53.83
2022-12-15T21:39:20.916Z,54.00
2022-12-15T21:41:47.738Z,51.97
2022-12-15T21:44:14.809Z,59.58
2022-12-15T21:46:41.892Z,52.53
2022-12-15T21:49:14.897Z,57.65
2022-12-15T21:51:52.004Z,52.85
2022-12-15T21:54:20.556Z,53.58
2022-12-15T21:56:48.525Z,63.03
2022-12-15T21:59:17.267Z,56.67
2022-12-15T22:01:44.184Z,59.38
2022-12-15T22:04:24.054Z,52.40
2022-12-15T22:06:51.097Z,54.05
2022-12-15T22:09:18.957Z,56.08
2022-12-15T22:11:46.996Z,60.20
2022-12-15T22:14:33.959Z,50.33
2022-12-15T22:17:01.557Z,55.90
2022-12-15T22:19:28.422Z,58.97
2022-12-15T22:21:55.386Z,60.03
2022-12-15T22:24:22.214Z,56.30
2022-12-15T22:26:49.038Z,56.67
2022-12-15T22:29:21.670Z,57.90
2022-12-15T22:31:50.235Z,60.67
2022-12-15T22:34:19.127Z,58.97
2022-12-15T22:36:45.925Z,54.95
2022-12-15T22:39:14.829Z,56.60
2022-12-15T22:41:50.814Z,55.08
2022-12-15T22:44:22.064Z,58.83
2022-12-15T22:46:49.365Z,54.92
2022-12-15T22:49:25.203Z,59.50
2022-12-15T22:51:52.021Z,57.38
2022-12-15T22:54:19.980Z,56.45
2022-12-15T22:56:47.823Z,59.10
2022-12-15T22:59:20.043Z,59.83
2022-12-15T23:01:46.910Z,59.92
2022-12-15T23:04:14.395Z,63.85
2022-12-15T23:06:41.135Z,55.38
2022-12-15T23:09:07.878Z,59.78
2022-12-15T23:11:37.448Z,53.55
2022-12-15T23:14:05.624Z,53.33
2022-12-15T23:16:32.701Z,57.13
2022-12-15T23:18:59.904Z,61.63
2022-12-15T23:21:26.703Z,61.30
2022-12-15T23:23:53.572Z,58.92
2022-12-15T23:26:26.053Z,59.90
2022-12-15T23:28:53.686Z,61.20
2022-12-15T23:31:22.197Z,55.67
2022-12-15T23:33:49.962Z,56.10
2022-12-15T23:36:19.028Z,61.42
2022-12-15T23:38:46.453Z,54.92
2022-12-15T23:41:17.330Z,58.35
2022-12-15T23:43:44.163Z,54.33
2022-12-15T23:46:11.046Z,56.58
2022-12-15T23:48:39.097Z,55.38
2022-12-15T23:51:16.746Z,57.88
2022-12-15T23:53:44.025Z,49.83
2022-12-15T23:56:13.830Z,51.75
2022-12-15T23:58:40.991Z,56.45
